sensor_id;sensor_type;location;lat;lon;timestamp;P1;P2;P0
55043;PMS5003;54902;50.420;18.854;2024-02-14T00:00:25;16;15;9
55043;PMS5003;54902;50.420;18.854;2024-02-14T00:00:56;16;15;9
55043;PMS5003;54902;50.420;18.854;2024-02-14T00:01:28;16;15;9
55043;PMS5003;54902;50.420;18.854;2024-02-14T00:01:59;16;15;9
55043;PMS5003;54902;50.420;18.854;2024-02-14T00:02:30;16;15;9
55043;PMS5003;54902;50.420;18.854;2024-02-14T00:03:01;16;15;9
55043;PMS5003;54902;50.420;18.854;2024-02-14T00:03:33;16;15;9
55043;PMS5003;54902;50.420;18.854;2024-02-14T00:04:04;16;15;9
55043;PMS5003;54902;50.420;18.854;2024-02-14T00:04:37;12;12;7
55043;PMS5003;54902;50.420;18.854;2024-02-14T00:05:10;20;18;9
55043;PMS5003;54902;50.420;18.854;2024-02-14T00:05:42;20;18;9
55043;PMS5003;54902;50.420;18.854;2024-02-14T00:06:12;20;18;9
55043;PMS5003;54902;50.420;18.854;2024-02-14T00:06:44;20;18;9
55043;PMS5003;54902;50.420;18.854;2024-02-14T00:07:15;20;18;9
55043;PMS5003;54902;50.420;18.854;2024-02-14T00:07:46;20;18;9
55043;PMS5003;54902;50.420;18.854;2024-02-14T00:08:17;20;18;9
55043;PMS5003;54902;50.420;18.854;2024-02-14T00:08:48;20;18;9
55043;PMS5003;54902;50.420;18.854;2024-02-14T00:09:19;20;18;9
55043;PMS5003;54902;50.420;18.854;2024-02-14T00:09:50;11;11;8
55043;PMS5003;54902;50.420;18.854;2024-02-14T00:10:21;11;11;8
55043;PMS5003;54902;50.420;18.854;2024-02-14T00:10:53;11;11;8
55043;PMS5003;54902;50.420;18.854;2024-02-14T00:11:24;11;11;8
55043;PMS5003;54902;50.420;18.854;2024-02-14T00:11:55;11;11;8
55043;PMS5003;54902;50.420;18.854;2024-02-14T00:12:26;11;11;8
55043;PMS5003;54902;50.420;18.854;2024-02-14T00:12:57;11;11;8
55043;PMS5003;54902;50.420;18.854;2024-02-14T00:13:29;11;11;8
55043;PMS5003;54902;50.420;18.854;2024-02-14T00:14:04;11;11;8
55043;PMS5003;54902;50.420;18.854;2024-02-14T00:14:37;11;11;8
55043;PMS5003;54902;50.420;18.854;2024-02-14T00:15:09;19;18;15
55043;PMS5003;54902;50.420;18.854;2024-02-14T00:15:40;19;18;15
55043;PMS5003;54902;50.420;18.854;2024-02-14T00:16:12;19;18;15
55043;PMS5003;54902;50.420;18.854;2024-02-14T00:16:43;19;18;15
55043;PMS5003;54902;50.420;18.854;2024-02-14T00:17:14;19;18;15
55043;PMS5003;54902;50.420;18.854;2024-02-14T00:17:45;19;18;15
55043;PMS5003;54902;50.420;18.854;2024-02-14T00:18:16;19;18;15
55043;PMS5003;54902;50.420;18.854;2024-02-14T00:18:47;19;18;15
55043;PMS5003;54902;50.420;18.854;2024-02-14T00:19:18;19;18;15
55043;PMS5003;54902;50.420;18.854;2024-02-14T00:19:49;19;18;15
55043;PMS5003;54902;50.420;18.854;2024-02-14T00:20:20;19;18;15
55043;PMS5003;54902;50.420;18.854;2024-02-14T00:20:52;19;18;15
55043;PMS5003;54902;50.420;18.854;2024-02-14T00:21:23;19;18;15
55043;PMS5003;54902;50.420;18.854;2024-02-14T00:21:57;19;18;15
55043;PMS5003;54902;50.420;18.854;2024-02-14T00:22:28;19;18;15
55043;PMS5003;54902;50.420;18.854;2024-02-14T00:22:59;19;18;15
55043;PMS5003;54902;50.420;18.854;2024-02-14T00:23:32;19;18;15
55043;PMS5003;54902;50.420;18.854;2024-02-14T00:24:03;19;18;15
55043;PMS5003;54902;50.420;18.854;2024-02-14T00:24:35;19;18;15
55043;PMS5003;54902;50.420;18.854;2024-02-14T00:25:06;19;18;15
55043;PMS5003;54902;50.420;18.854;2024-02-14T00:25:37;19;18;15
55043;PMS5003;54902;50.420;18.854;2024-02-14T00:26:08;19;18;15
55043;PMS5003;54902;50.420;18.854;2024-02-14T00:26:39;19;18;15
55043;PMS5003;54902;50.420;18.854;2024-02-14T00:27:10;19;18;15
55043;PMS5003;54902;50.420;18.854;2024-02-14T00:27:42;19;18;15
55043;PMS5003;54902;50.420;18.854;2024-02-14T00:28:13;19;18;15
55043;PMS5003;54902;50.420;18.854;2024-02-14T00:28:44;19;18;15
55043;PMS5003;54902;50.420;18.854;2024-02-14T00:29:15;17;17;14
55043;PMS5003;54902;50.420;18.854;2024-02-14T00:29:46;17;17;14
55043;PMS5003;54902;50.420;18.854;2024-02-14T00:30:18;17;17;14
55043;PMS5003;54902;50.420;18.854;2024-02-14T00:30:49;11;11;7
55043;PMS5003;54902;50.420;18.854;2024-02-14T00:31:20;11;11;7
55043;PMS5003;54902;50.420;18.854;2024-02-14T00:31:51;11;11;7
55043;PMS5003;54902;50.420;18.854;2024-02-14T00:32:22;11;11;7
55043;PMS5003;54902;50.420;18.854;2024-02-14T00:32:53;11;11;7
55043;PMS5003;54902;50.420;18.854;2024-02-14T00:33:24;11;11;7
55043;PMS5003;54902;50.420;18.854;2024-02-14T00:33:55;11;11;7
55043;PMS5003;54902;50.420;18.854;2024-02-14T00:34:26;11;11;7
55043;PMS5003;54902;50.420;18.854;2024-02-14T00:34:57;11;11;7
55043;PMS5003;54902;50.420;18.854;2024-02-14T00:35:28;11;11;7
55043;PMS5003;54902;50.420;18.854;2024-02-14T00:35:59;13;13;9
55043;PMS5003;54902;50.420;18.854;2024-02-14T00:36:30;13;13;9
55043;PMS5003;54902;50.420;18.854;2024-02-14T00:37:01;13;13;9
55043;PMS5003;54902;50.420;18.854;2024-02-14T00:37:32;13;13;9
55043;PMS5003;54902;50.420;18.854;2024-02-14T00:38:04;13;13;9
55043;PMS5003;54902;50.420;18.854;2024-02-14T00:38:35;13;13;9
55043;PMS5003;54902;50.420;18.854;2024-02-14T00:39:06;13;13;9
55043;PMS5003;54902;50.420;18.854;2024-02-14T00:39:40;13;13;9
55043;PMS5003;54902;50.420;18.854;2024-02-14T00:40:11;13;13;9
55043;PMS5003;54902;50.420;18.854;2024-02-14T00:40:42;13;13;9
55043;PMS5003;54902;50.420;18.854;2024-02-14T00:41:13;13;13;9
55043;PMS5003;54902;50.420;18.854;2024-02-14T00:41:46;13;13;9
55043;PMS5003;54902;50.420;18.854;2024-02-14T00:42:17;13;13;9
55043;PMS5003;54902;50.420;18.854;2024-02-14T00:42:48;13;13;9
55043;PMS5003;54902;50.420;18.854;2024-02-14T00:43:19;13;13;9
55043;PMS5003;54902;50.420;18.854;2024-02-14T00:43:50;15;14;9
55043;PMS5003;54902;50.420;18.854;2024-02-14T00:44:21;15;14;9
55043;PMS5003;54902;50.420;18.854;2024-02-14T00:44:52;15;14;9
55043;PMS5003;54902;50.420;18.854;2024-02-14T00:45:23;15;14;9
55043;PMS5003;54902;50.420;18.854;2024-02-14T00:45:54;15;14;9
55043;PMS5003;54902;50.420;18.854;2024-02-14T00:46:27;16;15;10
55043;PMS5003;54902;50.420;18.854;2024-02-14T00:46:58;16;15;10
55043;PMS5003;54902;50.420;18.854;2024-02-14T00:47:32;16;15;10
55043;PMS5003;54902;50.420;18.854;2024-02-14T00:48:03;16;15;10
55043;PMS5003;54902;50.420;18.854;2024-02-14T00:48:35;18;17;11
55043;PMS5003;54902;50.420;18.854;2024-02-14T00:49:06;18;17;11
55043;PMS5003;54902;50.420;18.854;2024-02-14T00:49:37;18;17;11
55043;PMS5003;54902;50.420;18.854;2024-02-14T00:50:09;18;17;11
55043;PMS5003;54902;50.420;18.854;2024-02-14T00:50:40;18;17;11
55043;PMS5003;54902;50.420;18.854;2024-02-14T00:51:11;18;17;11
55043;PMS5003;54902;50.420;18.854;2024-02-14T00:51:42;25;25;16
55043;PMS5003;54902;50.420;18.854;2024-02-14T00:52:13;25;25;16
55043;PMS5003;54902;50.420;18.854;2024-02-14T00:52:46;25;25;16
55043;PMS5003;54902;50.420;18.854;2024-02-14T00:53:18;25;25;16
55043;PMS5003;54902;50.420;18.854;2024-02-14T00:53:49;25;25;16
55043;PMS5003;54902;50.420;18.854;2024-02-14T00:54:20;25;25;16
55043;PMS5003;54902;50.420;18.854;2024-02-14T00:54:51;25;25;16
55043;PMS5003;54902;50.420;18.854;2024-02-14T00:55:22;25;25;16
55043;PMS5003;54902;50.420;18.854;2024-02-14T00:55:53;25;25;16
55043;PMS5003;54902;50.420;18.854;2024-02-14T00:56:24;25;25;16
55043;PMS5003;54902;50.420;18.854;2024-02-14T00:56:55;28;28;19
55043;PMS5003;54902;50.420;18.854;2024-02-14T00:57:26;28;28;19
55043;PMS5003;54902;50.420;18.854;2024-02-14T00:57:57;28;28;19
55043;PMS5003;54902;50.420;18.854;2024-02-14T00:58:28;28;28;19
55043;PMS5003;54902;50.420;18.854;2024-02-14T00:58:59;19;19;13
55043;PMS5003;54902;50.420;18.854;2024-02-14T00:59:31;19;19;13
55043;PMS5003;54902;50.420;18.854;2024-02-14T01:00:02;19;19;13
55043;PMS5003;54902;50.420;18.854;2024-02-14T01:00:36;19;19;13
55043;PMS5003;54902;50.420;18.854;2024-02-14T01:01:07;19;19;13
55043;PMS5003;54902;50.420;18.854;2024-02-14T01:01:38;19;19;13
55043;PMS5003;54902;50.420;18.854;2024-02-14T01:02:09;17;17;10
55043;PMS5003;54902;50.420;18.854;2024-02-14T01:02:40;17;17;10
55043;PMS5003;54902;50.420;18.854;2024-02-14T01:03:12;17;17;10
55043;PMS5003;54902;50.420;18.854;2024-02-14T01:03:46;17;17;10
55043;PMS5003;54902;50.420;18.854;2024-02-14T01:04:17;17;17;10
55043;PMS5003;54902;50.420;18.854;2024-02-14T01:04:48;17;17;10
55043;PMS5003;54902;50.420;18.854;2024-02-14T01:05:19;17;17;10
55043;PMS5003;54902;50.420;18.854;2024-02-14T01:05:50;17;17;10
55043;PMS5003;54902;50.420;18.854;2024-02-14T01:06:21;17;17;10
55043;PMS5003;54902;50.420;18.854;2024-02-14T01:06:52;17;17;10
55043;PMS5003;54902;50.420;18.854;2024-02-14T01:07:23;19;19;12
55043;PMS5003;54902;50.420;18.854;2024-02-14T01:07:55;19;19;12
55043;PMS5003;54902;50.420;18.854;2024-02-14T01:08:26;19;19;12
55043;PMS5003;54902;50.420;18.854;2024-02-14T01:08:57;19;19;12
55043;PMS5003;54902;50.420;18.854;2024-02-14T01:09:27;19;19;12
55043;PMS5003;54902;50.420;18.854;2024-02-14T01:09:58;19;19;12
55043;PMS5003;54902;50.420;18.854;2024-02-14T01:10:29;19;19;12
55043;PMS5003;54902;50.420;18.854;2024-02-14T01:11:00;19;19;12
55043;PMS5003;54902;50.420;18.854;2024-02-14T01:11:31;19;19;12
55043;PMS5003;54902;50.420;18.854;2024-02-14T01:12:02;19;19;12
55043;PMS5003;54902;50.420;18.854;2024-02-14T01:12:35;19;19;12
55043;PMS5003;54902;50.420;18.854;2024-02-14T01:13:05;10;10;7
55043;PMS5003;54902;50.420;18.854;2024-02-14T01:13:37;10;10;7
55043;PMS5003;54902;50.420;18.854;2024-02-14T01:14:08;10;10;7
55043;PMS5003;54902;50.420;18.854;2024-02-14T01:14:39;10;10;7
55043;PMS5003;54902;50.420;18.854;2024-02-14T01:15:10;10;10;7
55043;PMS5003;54902;50.420;18.854;2024-02-14T01:15:41;10;10;7
55043;PMS5003;54902;50.420;18.854;2024-02-14T01:16:12;10;10;7
55043;PMS5003;54902;50.420;18.854;2024-02-14T01:16:44;10;10;7
55043;PMS5003;54902;50.420;18.854;2024-02-14T01:17:16;10;10;7
55043;PMS5003;54902;50.420;18.854;2024-02-14T01:17:47;12;12;9
55043;PMS5003;54902;50.420;18.854;2024-02-14T01:18:18;12;12;9
55043;PMS5003;54902;50.420;18.854;2024-02-14T01:18:49;12;12;9
55043;PMS5003;54902;50.420;18.854;2024-02-14T01:19:20;12;12;9
55043;PMS5003;54902;50.420;18.854;2024-02-14T01:19:53;12;12;9
55043;PMS5003;54902;50.420;18.854;2024-02-14T01:20:25;12;12;9
55043;PMS5003;54902;50.420;18.854;2024-02-14T01:20:57;12;12;9
55043;PMS5003;54902;50.420;18.854;2024-02-14T01:21:30;12;12;9
55043;PMS5003;54902;50.420;18.854;2024-02-14T01:22:01;12;12;9
55043;PMS5003;54902;50.420;18.854;2024-02-14T01:22:34;12;12;9
55043;PMS5003;54902;50.420;18.854;2024-02-14T01:23:07;12;12;9
55043;PMS5003;54902;50.420;18.854;2024-02-14T01:23:37;12;12;9
55043;PMS5003;54902;50.420;18.854;2024-02-14T01:24:09;12;12;9
55043;PMS5003;54902;50.420;18.854;2024-02-14T01:24:43;12;12;9
55043;PMS5003;54902;50.420;18.854;2024-02-14T01:25:15;12;12;9
55043;PMS5003;54902;50.420;18.854;2024-02-14T01:25:46;11;10;8
55043;PMS5003;54902;50.420;18.854;2024-02-14T01:26:17;11;10;8
55043;PMS5003;54902;50.420;18.854;2024-02-14T01:26:48;11;10;8
55043;PMS5003;54902;50.420;18.854;2024-02-14T01:27:21;11;10;8
55043;PMS5003;54902;50.420;18.854;2024-02-14T01:29:08;10;8;7
55043;PMS5003;54902;50.420;18.854;2024-02-14T01:29:39;10;8;7
55043;PMS5003;54902;50.420;18.854;2024-02-14T01:30:10;10;8;7
55043;PMS5003;54902;50.420;18.854;2024-02-14T01:30:41;10;8;7
55043;PMS5003;54902;50.420;18.854;2024-02-14T01:31:12;10;8;7
55043;PMS5003;54902;50.420;18.854;2024-02-14T01:31:44;10;8;7
55043;PMS5003;54902;50.420;18.854;2024-02-14T01:32:15;11;9;8
55043;PMS5003;54902;50.420;18.854;2024-02-14T01:32:47;11;9;8
55043;PMS5003;54902;50.420;18.854;2024-02-14T01:33:18;11;9;8
55043;PMS5003;54902;50.420;18.854;2024-02-14T01:34:32;10;10;8
55043;PMS5003;54902;50.420;18.854;2024-02-14T01:35:14;26;19;10
55043;PMS5003;54902;50.420;18.854;2024-02-14T01:35:45;26;19;10
55043;PMS5003;54902;50.420;18.854;2024-02-14T01:36:16;26;19;10
55043;PMS5003;54902;50.420;18.854;2024-02-14T01:36:47;26;19;10
55043;PMS5003;54902;50.420;18.854;2024-02-14T01:37:18;26;19;10
55043;PMS5003;54902;50.420;18.854;2024-02-14T01:37:51;26;19;10
55043;PMS5003;54902;50.420;18.854;2024-02-14T01:38:23;26;19;10
55043;PMS5003;54902;50.420;18.854;2024-02-14T01:38:54;26;19;10
55043;PMS5003;54902;50.420;18.854;2024-02-14T01:39:25;32;28;14
55043;PMS5003;54902;50.420;18.854;2024-02-14T01:39:56;32;28;14
55043;PMS5003;54902;50.420;18.854;2024-02-14T01:40:27;32;28;14
55043;PMS5003;54902;50.420;18.854;2024-02-14T01:40:58;32;28;14
55043;PMS5003;54902;50.420;18.854;2024-02-14T01:41:29;32;28;14
55043;PMS5003;54902;50.420;18.854;2024-02-14T01:41:59;19;17;10
55043;PMS5003;54902;50.420;18.854;2024-02-14T01:42:30;19;17;10
55043;PMS5003;54902;50.420;18.854;2024-02-14T01:43:01;19;17;10
55043;PMS5003;54902;50.420;18.854;2024-02-14T01:43:32;19;17;10
55043;PMS5003;54902;50.420;18.854;2024-02-14T01:44:03;19;17;10
55043;PMS5003;54902;50.420;18.854;2024-02-14T01:44:34;11;11;6
55043;PMS5003;54902;50.420;18.854;2024-02-14T01:45:07;11;11;6
55043;PMS5003;54902;50.420;18.854;2024-02-14T01:45:38;11;11;6
55043;PMS5003;54902;50.420;18.854;2024-02-14T01:46:09;11;11;6
55043;PMS5003;54902;50.420;18.854;2024-02-14T01:46:41;11;11;6
55043;PMS5003;54902;50.420;18.854;2024-02-14T01:47:13;11;11;6
55043;PMS5003;54902;50.420;18.854;2024-02-14T01:47:44;11;11;6
55043;PMS5003;54902;50.420;18.854;2024-02-14T01:48:15;11;11;6
55043;PMS5003;54902;50.420;18.854;2024-02-14T01:48:48;11;11;6
55043;PMS5003;54902;50.420;18.854;2024-02-14T01:49:20;11;11;6
55043;PMS5003;54902;50.420;18.854;2024-02-14T01:49:51;13;13;7
55043;PMS5003;54902;50.420;18.854;2024-02-14T01:50:22;13;13;7
55043;PMS5003;54902;50.420;18.854;2024-02-14T01:51:02;13;13;7
55043;PMS5003;54902;50.420;18.854;2024-02-14T01:51:37;13;13;7
55043;PMS5003;54902;50.420;18.854;2024-02-14T01:52:12;13;13;7
55043;PMS5003;54902;50.420;18.854;2024-02-14T01:52:43;13;13;7
55043;PMS5003;54902;50.420;18.854;2024-02-14T01:53:15;13;13;7
55043;PMS5003;54902;50.420;18.854;2024-02-14T01:53:46;13;13;7
55043;PMS5003;54902;50.420;18.854;2024-02-14T01:54:18;13;13;7
55043;PMS5003;54902;50.420;18.854;2024-02-14T01:54:49;13;13;7
55043;PMS5003;54902;50.420;18.854;2024-02-14T01:55:20;13;13;7
55043;PMS5003;54902;50.420;18.854;2024-02-14T01:55:52;13;13;7
55043;PMS5003;54902;50.420;18.854;2024-02-14T01:56:23;13;13;7
55043;PMS5003;54902;50.420;18.854;2024-02-14T01:56:54;13;13;7
55043;PMS5003;54902;50.420;18.854;2024-02-14T01:57:26;13;13;7
55043;PMS5003;54902;50.420;18.854;2024-02-14T01:57:58;13;13;7
55043;PMS5003;54902;50.420;18.854;2024-02-14T01:58:29;13;13;7
55043;PMS5003;54902;50.420;18.854;2024-02-14T01:59:00;13;13;7
55043;PMS5003;54902;50.420;18.854;2024-02-14T01:59:33;13;13;7
55043;PMS5003;54902;50.420;18.854;2024-02-14T02:00:08;13;13;7
55043;PMS5003;54902;50.420;18.854;2024-02-14T02:00:45;13;13;7
55043;PMS5003;54902;50.420;18.854;2024-02-14T02:01:16;13;13;7
55043;PMS5003;54902;50.420;18.854;2024-02-14T02:01:49;13;13;7
55043;PMS5003;54902;50.420;18.854;2024-02-14T02:02:22;13;13;7
55043;PMS5003;54902;50.420;18.854;2024-02-14T02:02:54;13;13;7
55043;PMS5003;54902;50.420;18.854;2024-02-14T02:03:27;13;13;7
55043;PMS5003;54902;50.420;18.854;2024-02-14T02:03:58;13;13;7
55043;PMS5003;54902;50.420;18.854;2024-02-14T02:04:29;11;11;7
55043;PMS5003;54902;50.420;18.854;2024-02-14T02:05:00;11;11;7
55043;PMS5003;54902;50.420;18.854;2024-02-14T02:05:31;11;11;7
55043;PMS5003;54902;50.420;18.854;2024-02-14T02:06:07;9;9;6
55043;PMS5003;54902;50.420;18.854;2024-02-14T02:06:39;9;9;6
55043;PMS5003;54902;50.420;18.854;2024-02-14T02:07:11;9;9;6
55043;PMS5003;54902;50.420;18.854;2024-02-14T02:07:42;9;9;6
55043;PMS5003;54902;50.420;18.854;2024-02-14T02:08:14;16;16;11
55043;PMS5003;54902;50.420;18.854;2024-02-14T02:08:45;16;16;11
55043;PMS5003;54902;50.420;18.854;2024-02-14T02:09:18;16;16;11
55043;PMS5003;54902;50.420;18.854;2024-02-14T02:09:49;16;16;11
55043;PMS5003;54902;50.420;18.854;2024-02-14T02:10:20;16;16;11
55043;PMS5003;54902;50.420;18.854;2024-02-14T02:10:55;16;16;11
55043;PMS5003;54902;50.420;18.854;2024-02-14T02:11:26;27;24;14
55043;PMS5003;54902;50.420;18.854;2024-02-14T02:11:57;27;24;14
55043;PMS5003;54902;50.420;18.854;2024-02-14T02:12:28;27;24;14
55043;PMS5003;54902;50.420;18.854;2024-02-14T02:12:59;27;24;14
55043;PMS5003;54902;50.420;18.854;2024-02-14T02:13:33;27;24;14
55043;PMS5003;54902;50.420;18.854;2024-02-14T02:14:04;22;20;13
55043;PMS5003;54902;50.420;18.854;2024-02-14T02:14:35;22;20;13
55043;PMS5003;54902;50.420;18.854;2024-02-14T02:15:07;22;20;13
55043;PMS5003;54902;50.420;18.854;2024-02-14T02:15:44;22;20;13
55043;PMS5003;54902;50.420;18.854;2024-02-14T02:16:16;22;20;13
55043;PMS5003;54902;50.420;18.854;2024-02-14T02:16:49;26;23;15
55043;PMS5003;54902;50.420;18.854;2024-02-14T02:17:20;26;23;15
55043;PMS5003;54902;50.420;18.854;2024-02-14T02:17:51;26;23;15
55043;PMS5003;54902;50.420;18.854;2024-02-14T02:18:23;26;23;15
55043;PMS5003;54902;50.420;18.854;2024-02-14T02:18:56;26;23;15
55043;PMS5003;54902;50.420;18.854;2024-02-14T02:19:27;26;23;15
55043;PMS5003;54902;50.420;18.854;2024-02-14T02:19:59;26;23;15
55043;PMS5003;54902;50.420;18.854;2024-02-14T02:20:32;26;23;15
55043;PMS5003;54902;50.420;18.854;2024-02-14T02:21:03;26;23;15
55043;PMS5003;54902;50.420;18.854;2024-02-14T02:21:37;26;23;15
55043;PMS5003;54902;50.420;18.854;2024-02-14T02:22:08;31;27;18
55043;PMS5003;54902;50.420;18.854;2024-02-14T02:22:45;31;27;18
55043;PMS5003;54902;50.420;18.854;2024-02-14T02:23:18;31;27;18
55043;PMS5003;54902;50.420;18.854;2024-02-14T02:23:49;31;27;18
55043;PMS5003;54902;50.420;18.854;2024-02-14T02:24:20;31;27;18
55043;PMS5003;54902;50.420;18.854;2024-02-14T02:24:51;31;27;18
55043;PMS5003;54902;50.420;18.854;2024-02-14T02:25:22;31;27;18
55043;PMS5003;54902;50.420;18.854;2024-02-14T02:25:56;31;27;18
55043;PMS5003;54902;50.420;18.854;2024-02-14T02:26:27;31;27;18
55043;PMS5003;54902;50.420;18.854;2024-02-14T02:26:58;31;27;18
55043;PMS5003;54902;50.420;18.854;2024-02-14T02:27:29;31;27;18
55043;PMS5003;54902;50.420;18.854;2024-02-14T02:28:00;31;27;18
55043;PMS5003;54902;50.420;18.854;2024-02-14T02:28:31;31;27;18
55043;PMS5003;54902;50.420;18.854;2024-02-14T02:29:02;31;27;18
55043;PMS5003;54902;50.420;18.854;2024-02-14T02:29:35;31;27;18
55043;PMS5003;54902;50.420;18.854;2024-02-14T02:30:08;31;27;18
55043;PMS5003;54902;50.420;18.854;2024-02-14T02:30:40;31;27;18
55043;PMS5003;54902;50.420;18.854;2024-02-14T02:31:11;31;27;18
55043;PMS5003;54902;50.420;18.854;2024-02-14T02:31:42;31;27;18
55043;PMS5003;54902;50.420;18.854;2024-02-14T02:32:13;31;27;18
55043;PMS5003;54902;50.420;18.854;2024-02-14T02:32:48;31;27;18
55043;PMS5003;54902;50.420;18.854;2024-02-14T02:33:21;15;13;7
55043;PMS5003;54902;50.420;18.854;2024-02-14T02:33:52;15;13;7
55043;PMS5003;54902;50.420;18.854;2024-02-14T02:34:23;15;13;7
55043;PMS5003;54902;50.420;18.854;2024-02-14T02:34:54;15;13;7
55043;PMS5003;54902;50.420;18.854;2024-02-14T02:35:26;15;13;7
55043;PMS5003;54902;50.420;18.854;2024-02-14T02:35:57;15;13;7
55043;PMS5003;54902;50.420;18.854;2024-02-14T02:36:28;15;13;7
55043;PMS5003;54902;50.420;18.854;2024-02-14T02:37:00;15;13;7
55043;PMS5003;54902;50.420;18.854;2024-02-14T02:37:31;15;13;7
55043;PMS5003;54902;50.420;18.854;2024-02-14T02:38:02;19;18;9
55043;PMS5003;54902;50.420;18.854;2024-02-14T02:38:33;19;18;9
55043;PMS5003;54902;50.420;18.854;2024-02-14T02:39:06;19;18;9
55043;PMS5003;54902;50.420;18.854;2024-02-14T02:39:38;19;18;9
55043;PMS5003;54902;50.420;18.854;2024-02-14T02:40:10;19;18;9
55043;PMS5003;54902;50.420;18.854;2024-02-14T02:40:43;19;18;9
55043;PMS5003;54902;50.420;18.854;2024-02-14T02:41:15;19;18;9
55043;PMS5003;54902;50.420;18.854;2024-02-14T02:41:46;19;18;9
55043;PMS5003;54902;50.420;18.854;2024-02-14T02:42:20;19;18;9
55043;PMS5003;54902;50.420;18.854;2024-02-14T02:42:51;19;18;9
55043;PMS5003;54902;50.420;18.854;2024-02-14T02:43:22;19;18;9
55043;PMS5003;54902;50.420;18.854;2024-02-14T02:43:52;11;10;8
55043;PMS5003;54902;50.420;18.854;2024-02-14T02:44:24;11;10;8
55043;PMS5003;54902;50.420;18.854;2024-02-14T02:44:57;11;10;8
55043;PMS5003;54902;50.420;18.854;2024-02-14T02:45:28;11;10;8
55043;PMS5003;54902;50.420;18.854;2024-02-14T02:45:59;11;10;8
55043;PMS5003;54902;50.420;18.854;2024-02-14T02:46:30;11;10;8
55043;PMS5003;54902;50.420;18.854;2024-02-14T02:47:01;11;10;8
55043;PMS5003;54902;50.420;18.854;2024-02-14T02:47:32;11;10;8
55043;PMS5003;54902;50.420;18.854;2024-02-14T02:48:03;11;10;8
55043;PMS5003;54902;50.420;18.854;2024-02-14T02:48:35;18;16;12
55043;PMS5003;54902;50.420;18.854;2024-02-14T02:49:06;18;16;12
55043;PMS5003;54902;50.420;18.854;2024-02-14T02:49:37;18;16;12
55043;PMS5003;54902;50.420;18.854;2024-02-14T02:50:08;17;16;11
55043;PMS5003;54902;50.420;18.854;2024-02-14T02:50:39;17;16;11
55043;PMS5003;54902;50.420;18.854;2024-02-14T02:51:10;17;16;11
55043;PMS5003;54902;50.420;18.854;2024-02-14T02:51:41;17;16;11
55043;PMS5003;54902;50.420;18.854;2024-02-14T02:52:12;17;16;11
55043;PMS5003;54902;50.420;18.854;2024-02-14T02:52:43;17;16;11
55043;PMS5003;54902;50.420;18.854;2024-02-14T02:53:15;17;16;11
55043;PMS5003;54902;50.420;18.854;2024-02-14T02:53:46;28;25;17
55043;PMS5003;54902;50.420;18.854;2024-02-14T02:54:17;28;25;17
55043;PMS5003;54902;50.420;18.854;2024-02-14T02:54:48;28;25;17
55043;PMS5003;54902;50.420;18.854;2024-02-14T02:55:20;28;25;17
55043;PMS5003;54902;50.420;18.854;2024-02-14T02:55:51;28;25;17
55043;PMS5003;54902;50.420;18.854;2024-02-14T02:56:27;28;25;17
55043;PMS5003;54902;50.420;18.854;2024-02-14T02:56:58;26;24;18
55043;PMS5003;54902;50.420;18.854;2024-02-14T02:57:29;26;24;18
55043;PMS5003;54902;50.420;18.854;2024-02-14T02:58:03;26;24;18
55043;PMS5003;54902;50.420;18.854;2024-02-14T02:58:37;26;24;18
55043;PMS5003;54902;50.420;18.854;2024-02-14T02:59:09;37;33;24
55043;PMS5003;54902;50.420;18.854;2024-02-14T02:59:39;37;33;24
55043;PMS5003;54902;50.420;18.854;2024-02-14T03:00:17;37;33;24
55043;PMS5003;54902;50.420;18.854;2024-02-14T03:00:51;37;33;24
55043;PMS5003;54902;50.420;18.854;2024-02-14T03:01:28;37;33;24
55043;PMS5003;54902;50.420;18.854;2024-02-14T03:02:01;37;33;24
55043;PMS5003;54902;50.420;18.854;2024-02-14T03:02:33;37;33;24
55043;PMS5003;54902;50.420;18.854;2024-02-14T03:03:07;37;33;24
55043;PMS5003;54902;50.420;18.854;2024-02-14T03:03:38;37;33;24
55043;PMS5003;54902;50.420;18.854;2024-02-14T03:04:12;37;33;24
55043;PMS5003;54902;50.420;18.854;2024-02-14T03:04:45;46;42;30
55043;PMS5003;54902;50.420;18.854;2024-02-14T03:05:17;46;42;30
55043;PMS5003;54902;50.420;18.854;2024-02-14T03:05:48;46;42;30
55043;PMS5003;54902;50.420;18.854;2024-02-14T03:06:19;46;42;30
55043;PMS5003;54902;50.420;18.854;2024-02-14T03:06:50;46;42;30
55043;PMS5003;54902;50.420;18.854;2024-02-14T03:07:21;46;42;30
55043;PMS5003;54902;50.420;18.854;2024-02-14T03:07:53;46;42;30
55043;PMS5003;54902;50.420;18.854;2024-02-14T03:08:28;46;42;30
55043;PMS5003;54902;50.420;18.854;2024-02-14T03:09:00;46;42;30
55043;PMS5003;54902;50.420;18.854;2024-02-14T03:09:31;46;42;30
55043;PMS5003;54902;50.420;18.854;2024-02-14T03:10:03;46;42;30
55043;PMS5003;54902;50.420;18.854;2024-02-14T03:10:34;46;42;30
55043;PMS5003;54902;50.420;18.854;2024-02-14T03:11:05;46;42;30
55043;PMS5003;54902;50.420;18.854;2024-02-14T03:11:37;26;23;16
55043;PMS5003;54902;50.420;18.854;2024-02-14T03:12:09;26;23;16
55043;PMS5003;54902;50.420;18.854;2024-02-14T03:12:40;26;23;16
55043;PMS5003;54902;50.420;18.854;2024-02-14T03:13:11;26;23;16
55043;PMS5003;54902;50.420;18.854;2024-02-14T03:13:42;26;23;16
55043;PMS5003;54902;50.420;18.854;2024-02-14T03:14:14;26;23;16
55043;PMS5003;54902;50.420;18.854;2024-02-14T03:14:45;26;23;16
55043;PMS5003;54902;50.420;18.854;2024-02-14T03:15:17;27;23;14
55043;PMS5003;54902;50.420;18.854;2024-02-14T03:15:50;27;23;14
55043;PMS5003;54902;50.420;18.854;2024-02-14T03:16:21;27;23;14
55043;PMS5003;54902;50.420;18.854;2024-02-14T03:16:54;27;23;14
55043;PMS5003;54902;50.420;18.854;2024-02-14T03:17:29;27;23;14
55043;PMS5003;54902;50.420;18.854;2024-02-14T03:18:00;27;23;14
55043;PMS5003;54902;50.420;18.854;2024-02-14T03:18:31;27;23;14
55043;PMS5003;54902;50.420;18.854;2024-02-14T03:19:03;25;22;15
55043;PMS5003;54902;50.420;18.854;2024-02-14T03:19:35;25;22;15
55043;PMS5003;54902;50.420;18.854;2024-02-14T03:20:09;25;22;15
55043;PMS5003;54902;50.420;18.854;2024-02-14T03:20:44;18;17;14
55043;PMS5003;54902;50.420;18.854;2024-02-14T03:21:15;18;17;14
55043;PMS5003;54902;50.420;18.854;2024-02-14T03:21:46;18;17;14
55043;PMS5003;54902;50.420;18.854;2024-02-14T03:22:17;20;16;13
55043;PMS5003;54902;50.420;18.854;2024-02-14T03:22:49;20;16;13
55043;PMS5003;54902;50.420;18.854;2024-02-14T03:23:20;20;16;13
55043;PMS5003;54902;50.420;18.854;2024-02-14T03:23:52;20;16;13